Wednesday, August 15, 2018, 11:59 PM EDT
Back to Local

KYNG, Youngstown-warren Reg Airprt

Location: Vienna, OH, United States Lat: 41.25
Local Time: 11:59 PM EDT ( 3:59 GMT) Lon: -80.667
Time Zone: US/Eastern Elev: 1197 ft

Show me the last for .
Show Coded

Time T Td Feel RH Dir Speed Gust Alt SLP Vis Weather Sky Remarks
2018-08-15 22:51 75 68 78 78 200° 6 - 30.07 30.04 10 SCT048 BKN210 OVC250 None
2018-08-15 21:51 75 68 78 78 190° 5 - 30.06 30.03 10 FEW055 OVC210 None
2018-08-15 20:51 77 68 80 73 140° 6 - 30.05 30.02 10 BKN050 OVC220 None
2018-08-15 19:51 78 70 82 76 140° 3 - 30.04 30.02 10 FEW055 BKN220 OVC250 6-hr Min Temp (8pm): 77.0°F
6-hr Max Temp (8pm): 86.0°F
2018-08-15 18:51 81 68 84 64 120° 3 - 30.04 30.01 10 FEW040 OVC220 None
2018-08-15 17:51 84 67 87 56 - Calm - 30.04 30.01 10 SCT042 OVC250 None
2018-08-15 16:51 85 67 88 55 340° 5 - 30.05 30.02 10 FEW039 OVC250 None
2018-08-15 15:51 84 66 87 54 310° 9 - 30.05 30.03 10 BKN043 OVC250 None
2018-08-15 14:51 84 66 87 54 250° 12 - 30.06 30.04 10 SCT041 SCT150 OVC250 None
2018-08-15 13:51 85 66 88 53 240° 10 - 30.06 30.03 10 SCT039 OVC250 6-hr Min Temp (2pm): 66.9°F
6-hr Max Temp (2pm): 84.9°F
2018-08-15 12:51 82 66 85 58 240° 10 - 30.06 30.03 10 SCT037 OVC250 None
2018-08-15 11:51 82 67 85 60 250° 10 - 30.06 30.03 10 FEW032 FEW220 OVC250 None
2018-08-15 10:51 79 68 82 69 250° 7 - 30.06 30.03 10 OVC250 None
2018-08-15 09:51 76 68 79 76 270° 8 - 30.06 30.03 10 FEW048 BKN250 None
2018-08-15 08:51 73 67 77 81 240° 6 - 30.05 30.02 7 FEW048 BKN250 None
2018-08-15 07:51 67 65 - 93 220° 3 - 30.04 30.01 7 SCT045 SCT250 6-hr Min Temp (8am): 64.0°F
6-hr Max Temp (8am): 66.9°F
2018-08-15 06:51 65 64 - 96 210° 3 - 30.03 30.00 7 FEW050 FEW250 None
2018-08-15 05:51 65 63 - 93 - Calm - 30.02 29.99 9 FEW050 None
2018-08-15 04:51 65 63 - 93 Variable 3 - 30.00 29.98 9 SCT050 None
2018-08-15 03:51 66 63 - 89 210° 3 - 29.99 29.97 10 CLR None
2018-08-15 02:51 66 63 - 89 200° 5 - 30.00 29.97 10 CLR None
2018-08-15 01:51 67 62 - 84 200° 5 - 30.00 29.98 10 CLR 6-hr Min Temp (2am): 64.0°F
6-hr Max Temp (2am): 77.0°F
2018-08-15 00:51 66 62 - 87 200° 3 - 30.00 29.98 10 CLR 24-hr Min Temp (1am): 63.0°F
24-hr Max Temp (1am): 84.9°F

Support USWX by starting your Amazon purchase here.